Time;durP1;ratioP1;P1;durP2;ratioP2;P2;SDS_P1;SDS_P2;PMS_P1;PMS_P2;Temp;Humidity;BMP_temperature;BMP_pressure;BME280_temperature;BME280_humidity;BME280_pressure;Samples;Min_cycle;Max_cycle;Signal;HPM_P1;HPM_P2
2022/06/10 00:00:29;;;;;;;0.50;0.50;;;14.90;99.90;;;;;;5037222;28;21313;-79
2022/06/10 00:02:55;;;;;;;0.23;0.23;;;14.60;99.90;;;;;;5034892;28;20195;-79
2022/06/10 00:05:24;;;;;;;0.20;0.20;;;14.60;99.90;;;;;;5034177;28;20207;-78
2022/06/10 00:07:52;;;;;;;0.30;0.30;;;14.60;99.90;;;;;;5035437;28;20188;-79
2022/06/10 00:10:21;;;;;;;0.10;0.10;;;14.60;99.90;;;;;;5034894;28;20252;-79
2022/06/10 00:12:48;;;;;;;0.70;0.40;;;14.70;99.90;;;;;;5033201;28;20236;-79
2022/06/10 00:15:15;;;;;;;1.17;0.60;;;14.80;99.90;;;;;;5034846;28;20311;-79
2022/06/10 00:17:42;;;;;;;0.43;0.33;;;14.80;99.90;;;;;;5035839;28;20208;-79
2022/06/10 00:20:09;;;;;;;0.20;0.20;;;14.60;99.90;;;;;;5034160;28;20192;-79
2022/06/10 00:22:35;;;;;;;0.57;0.40;;;14.60;99.90;;;;;;5035812;28;20364;-79
2022/06/10 00:25:00;;;;;;;0.17;0.17;;;14.50;99.90;;;;;;5036920;28;20191;-78
2022/06/10 00:27:26;;;;;;;1.70;0.30;;;14.50;99.90;;;;;;5034501;28;20223;-79
2022/06/10 00:29:51;;;;;;;0.40;0.30;;;14.50;99.90;;;;;;5033619;28;20186;-79
2022/06/10 00:32:17;;;;;;;0.30;0.30;;;14.50;99.90;;;;;;5037784;28;20218;-79
2022/06/10 00:34:43;;;;;;;0.17;0.17;;;14.40;99.90;;;;;;5033488;28;20186;-79
2022/06/10 00:37:09;;;;;;;0.40;0.40;;;14.40;99.90;;;;;;5036342;28;20281;-79
2022/06/10 00:39:35;;;;;;;0.40;0.40;;;14.40;99.90;;;;;;5033258;28;20187;-78
2022/06/10 00:42:04;;;;;;;0.63;0.20;;;14.20;99.90;;;;;;5033898;28;20598;-79
2022/06/10 00:44:40;;;;;;;0.10;0.10;;;14.20;99.90;;;;;;5035096;28;20271;-79
2022/06/10 00:47:20;;;;;;;0.30;0.30;;;14.20;99.90;;;;;;5036856;28;20198;-79
2022/06/10 00:49:58;;;;;;;0.30;0.27;;;14.20;99.90;;;;;;5033206;28;20208;-79
2022/06/10 00:52:31;;;;;;;0.20;0.20;;;14.20;99.90;;;;;;5034066;28;20203;-79
2022/06/10 00:54:57;;;;;;;0.60;0.60;;;14.20;99.90;;;;;;5035181;28;20593;-79
2022/06/10 00:57:31;;;;;;;0.43;0.43;;;14.20;99.90;;;;;;5034084;28;20211;-79
2022/06/10 01:00:06;;;;;;;1.13;0.47;;;14.10;99.90;;;;;;5034523;28;20203;-78
2022/06/10 01:02:35;;;;;;;0.40;0.40;;;14.10;99.90;;;;;;5035028;28;20192;-79
2022/06/10 01:05:04;;;;;;;0.47;0.30;;;14.10;99.90;;;;;;5033292;28;20212;-79
2022/06/10 01:07:32;;;;;;;0.20;0.20;;;13.80;99.90;;;;;;5033924;28;20214;-79
2022/06/10 01:10:01;;;;;;;0.20;0.20;;;13.70;99.90;;;;;;5032178;28;20223;-79
2022/06/10 01:13:00;;;;;;;0.20;0.20;;;13.80;99.90;;;;;;5035077;28;20237;-79
2022/06/10 01:15:45;;;;;;;0.57;0.30;;;13.90;99.90;;;;;;5034870;28;20178;-79
2022/06/10 01:18:39;;;;;;;0.20;0.20;;;13.80;99.90;;;;;;5035755;28;20179;-79
2022/06/10 01:21:31;;;;;;;0.10;0.10;;;13.70;99.90;;;;;;5037030;28;20277;-78
2022/06/10 01:24:04;;;;;;;0.20;0.20;;;13.70;99.90;;;;;;5032888;28;20190;-79
2022/06/10 01:29:43;;;;;;;0.10;0.10;;;13.50;99.90;;;;;;5035043;28;20337;-78
2022/06/10 01:32:20;;;;;;;0.47;0.30;;;13.40;99.90;;;;;;5032011;28;20203;-78
2022/06/10 01:35:01;;;;;;;0.20;0.20;;;13.30;99.90;;;;;;5032223;28;20233;-79
2022/06/10 01:38:01;;;;;;;0.13;0.13;;;13.30;99.90;;;;;;5033398;28;20196;-79
2022/06/10 01:40:46;;;;;;;0.10;0.10;;;13.40;99.90;;;;;;5034457;28;20269;-78
2022/06/10 01:43:46;;;;;;;0.30;0.30;;;13.50;99.90;;;;;;5033999;28;20188;-78
2022/06/10 01:46:20;;;;;;;0.30;0.30;;;13.50;99.90;;;;;;5031963;28;20693;-79
2022/06/10 01:48:57;;;;;;;0.20;0.20;;;13.50;99.90;;;;;;5034444;28;20188;-79
2022/06/10 01:51:58;;;;;;;1.60;0.63;;;13.60;99.90;;;;;;5034299;28;20268;-79
2022/06/10 01:54:50;;;;;;;0.37;0.30;;;13.30;99.90;;;;;;5031442;28;20187;-79
2022/06/10 01:57:25;;;;;;;0.17;0.17;;;13.10;99.90;;;;;;5033671;28;20268;-79
2022/06/10 02:00:16;;;;;;;0.50;0.17;;;13.20;99.90;;;;;;5031803;28;20213;-79
2022/06/10 02:03:10;;;;;;;0.20;0.20;;;13.30;99.90;;;;;;5031387;28;20171;-78
2022/06/10 02:05:41;;;;;;;0.13;0.13;;;13.30;99.90;;;;;;5030453;28;20202;-79
2022/06/10 02:08:27;;;;;;;0.37;0.33;;;13.40;99.90;;;;;;5033355;28;20182;-79
2022/06/10 02:11:09;;;;;;;0.23;0.17;;;13.40;99.90;;;;;;5034049;28;20187;-79
2022/06/10 02:13:52;;;;;;;0.17;0.17;;;13.40;99.90;;;;;;5031719;28;20508;-79
2022/06/10 02:16:22;;;;;;;0.37;0.30;;;13.40;99.90;;;;;;5033659;28;20807;-79
2022/06/10 02:19:07;;;;;;;0.37;0.20;;;13.30;99.90;;;;;;5032623;28;20187;-79
2022/06/10 02:22:03;;;;;;;0.20;0.20;;;13.20;99.90;;;;;;5031970;28;20178;-79
2022/06/10 02:24:38;;;;;;;0.37;0.37;;;13.00;99.90;;;;;;5027260;28;20224;-79
2022/06/10 02:27:12;;;;;;;0.20;0.20;;;12.90;99.90;;;;;;5033003;28;20356;-79
2022/06/10 02:29:49;;;;;;;0.87;0.50;;;13.00;99.90;;;;;;5029882;28;20761;-79
2022/06/10 02:32:14;;;;;;;0.53;0.20;;;13.00;99.90;;;;;;5032380;28;20547;-79
2022/06/10 02:34:40;;;;;;;3.53;0.40;;;13.10;99.90;;;;;;5032453;28;20208;-79
2022/06/10 02:37:17;;;;;;;0.20;0.20;;;13.10;99.90;;;;;;5032441;28;20743;-79
2022/06/10 02:40:05;;;;;;;0.30;0.30;;;13.10;99.90;;;;;;5033037;28;20277;-79
2022/06/10 02:42:45;;;;;;;0.20;0.20;;;13.00;99.90;;;;;;5032806;28;20177;-79
2022/06/10 02:45:24;;;;;;;0.10;0.10;;;13.00;99.90;;;;;;5034700;28;20583;-79
2022/06/10 02:48:23;;;;;;;0.93;0.93;;;13.10;99.90;;;;;;5032067;28;20178;-79
2022/06/10 02:50:49;;;;;;;0.40;0.40;;;13.00;99.90;;;;;;5033717;28;20182;-79
2022/06/10 02:53:15;;;;;;;0.57;0.57;;;13.10;99.90;;;;;;5030440;28;20206;-78
2022/06/10 02:55:40;;;;;;;0.13;0.13;;;13.20;99.90;;;;;;5032549;28;21008;-79
2022/06/10 03:01:25;;;;;;;0.20;0.20;;;13.10;99.90;;;;;;5033214;28;20222;-79
2022/06/10 03:04:18;;;;;;;0.57;0.57;;;13.20;99.90;;;;;;5033524;28;20660;-79
2022/06/10 03:06:59;;;;;;;0.23;0.23;;;13.10;99.90;;;;;;5034138;28;20230;-79
2022/06/10 03:09:37;;;;;;;0.20;0.20;;;13.10;99.90;;;;;;5047863;28;20189;-79
2022/06/10 03:12:17;;;;;;;0.53;0.40;;;13.20;99.90;;;;;;5031426;28;20186;-79
2022/06/10 03:15:08;;;;;;;0.20;0.20;;;13.20;99.90;;;;;;5034394;28;20714;-78
2022/06/10 03:17:52;;;;;;;0.10;0.10;;;13.20;99.90;;;;;;5036752;28;20203;-79
2022/06/10 03:20:52;;;;;;;0.40;0.40;;;13.10;99.90;;;;;;5035389;28;20204;-79
2022/06/10 03:23:50;;;;;;;0.20;0.20;;;13.00;99.90;;;;;;5003777;28;20289;-79
2022/06/10 03:26:26;;;;;;;0.13;0.13;;;13.00;99.90;;;;;;5034762;28;20682;-79
2022/06/10 03:29:29;;;;;;;1.30;0.47;;;13.10;99.90;;;;;;5036093;28;20754;-79
2022/06/10 03:32:04;;;;;;;0.40;0.20;;;13.20;99.90;;;;;;5009287;28;20194;-79
2022/06/10 03:34:41;;;;;;;0.50;0.30;;;13.20;99.90;;;;;;5032675;28;20243;-79
2022/06/10 03:37:07;;;;;;;0.30;0.30;;;13.10;99.90;;;;;;5035292;28;20678;-79
2022/06/10 03:39:34;;;;;;;0.10;0.10;;;13.70;99.90;;;;;;5036780;28;20182;-78
2022/06/10 03:42:12;;;;;;;0.23;0.23;;;14.20;99.90;;;;;;5034188;28;20665;-79
2022/06/10 03:44:39;;;;;;;0.20;0.20;;;14.90;99.90;;;;;;5034458;28;20203;-79
2022/06/10 03:47:07;;;;;;;0.20;0.20;;;15.60;99.90;;;;;;5035479;28;20199;-79
2022/06/10 03:50:04;;;;;;;0.10;0.10;;;15.90;99.90;;;;;;5034670;28;20551;-79
2022/06/10 03:52:33;;;;;;;0.17;0.17;;;16.60;99.90;;;;;;5034655;28;20208;-79
2022/06/10 03:54:58;;;;;;;0.30;0.30;;;16.90;99.90;;;;;;5037165;28;20191;-79
2022/06/10 03:57:24;;;;;;;0.30;0.30;;;17.50;99.90;;;;;;5033044;28;20209;-78
2022/06/10 03:59:50;;;;;;;0.70;0.70;;;18.10;99.90;;;;;;5036894;28;20229;-79
2022/06/10 04:02:16;;;;;;;0.23;0.23;;;17.90;99.90;;;;;;5035113;28;20869;-78
2022/06/10 04:04:43;;;;;;;0.40;0.40;;;18.20;99.90;;;;;;5035254;28;20656;-78
2022/06/10 04:07:11;;;;;;;0.40;0.40;;;18.90;99.90;;;;;;5034077;28;20677;-78
2022/06/10 04:09:37;;;;;;;0.93;0.57;;;19.60;99.90;;;;;;5050368;28;20182;-78
2022/06/10 04:12:03;;;;;;;0.60;0.30;;;20.20;99.90;;;;;;5034684;28;20216;-78
2022/06/10 04:14:29;;;;;;;0.20;0.20;;;20.50;99.90;;;;;;5033214;28;20181;-79
2022/06/10 04:16:54;;;;;;;0.40;0.40;;;20.90;99.90;;;;;;5033333;28;20574;-79
2022/06/10 04:19:20;;;;;;;0.20;0.20;;;21.20;99.90;;;;;;5033902;28;20375;-78
2022/06/10 04:21:46;;;;;;;0.20;0.20;;;21.40;99.90;;;;;;5035287;28;20202;-78
2022/06/10 04:24:11;;;;;;;0.30;0.30;;;21.20;99.90;;;;;;5036211;28;20173;-78
2022/06/10 04:26:37;;;;;;;0.63;0.40;;;20.10;99.90;;;;;;5034724;28;20201;-78
2022/06/10 04:29:02;;;;;;;0.20;0.20;;;19.30;99.90;;;;;;5035178;28;20178;-78
2022/06/10 04:31:28;;;;;;;0.57;0.50;;;18.90;99.90;;;;;;5034774;28;20198;-78
2022/06/10 04:33:54;;;;;;;0.30;0.30;;;18.40;99.90;;;;;;5033877;28;20244;-79
2022/06/10 04:36:20;;;;;;;0.30;0.30;;;17.90;99.90;;;;;;5034757;28;20205;-79
2022/06/10 04:38:45;;;;;;;0.53;0.40;;;17.60;99.90;;;;;;5033361;28;20200;-78
2022/06/10 04:41:12;;;;;;;0.37;0.37;;;17.40;99.90;;;;;;5035237;28;20189;-78
2022/06/10 04:43:38;;;;;;;0.40;0.20;;;17.00;99.90;;;;;;5035515;28;20227;-78
2022/06/10 04:46:07;;;;;;;0.20;0.20;;;16.90;99.90;;;;;;5031253;28;20216;-79
2022/06/10 04:48:33;;;;;;;0.30;0.30;;;16.90;99.90;;;;;;5034011;28;20188;-79
2022/06/10 04:50:59;;;;;;;0.33;0.33;;;16.80;99.90;;;;;;5033629;28;20190;-78
2022/06/10 04:53:25;;;;;;;0.20;0.20;;;16.60;99.90;;;;;;5032698;28;20205;-79
2022/06/10 04:55:51;;;;;;;0.30;0.30;;;16.50;99.90;;;;;;5031689;28;20268;-79
2022/06/10 04:58:16;;;;;;;0.30;0.30;;;16.50;99.90;;;;;;5033554;28;20197;-79
2022/06/10 05:00:47;;;;;;;0.40;0.30;;;16.40;99.90;;;;;;5049267;28;20187;-80
2022/06/10 05:03:13;;;;;;;0.10;0.10;;;16.20;99.90;;;;;;5031972;28;20192;-79
2022/06/10 05:05:38;;;;;;;0.23;0.23;;;16.20;99.90;;;;;;5033651;28;20224;-79
2022/06/10 05:08:06;;;;;;;0.10;0.10;;;16.20;99.90;;;;;;5034515;28;20547;-79
2022/06/10 05:10:31;;;;;;;0.30;0.30;;;16.10;99.90;;;;;;5032574;28;20225;-79
2022/06/10 05:12:57;;;;;;;0.50;0.50;;;16.00;99.90;;;;;;5036543;28;20241;-79
2022/06/10 05:15:23;;;;;;;0.47;0.47;;;16.00;99.90;;;;;;5032958;28;20275;-79
2022/06/10 05:17:50;;;;;;;0.50;0.27;;;15.90;99.90;;;;;;5033754;28;20240;-80
2022/06/10 05:20:24;;;;;;;0.30;0.30;;;16.00;99.90;;;;;;5034458;28;20743;-79
2022/06/10 05:22:50;;;;;;;0.30;0.30;;;15.90;99.90;;;;;;5032937;28;20189;-80
2022/06/10 05:25:16;;;;;;;0.40;0.20;;;15.90;99.90;;;;;;5036930;28;20289;-79
2022/06/10 05:27:41;;;;;;;0.30;0.30;;;15.80;99.90;;;;;;5034480;28;20236;-79
2022/06/10 05:30:16;;;;;;;0.30;0.30;;;15.80;99.90;;;;;;5034814;28;20242;-79
2022/06/10 05:32:41;;;;;;;0.20;0.20;;;15.80;99.90;;;;;;5032303;28;20211;-80
2022/06/10 05:35:07;;;;;;;0.40;0.30;;;15.80;99.90;;;;;;5032202;28;20213;-79
2022/06/10 05:37:33;;;;;;;0.30;0.30;;;15.70;99.90;;;;;;5031509;28;20271;-79
2022/06/10 05:39:58;;;;;;;0.40;0.40;;;15.70;99.90;;;;;;5031335;28;20706;-80
2022/06/10 05:42:24;;;;;;;0.20;0.20;;;15.70;99.90;;;;;;5032158;28;20192;-79
2022/06/10 05:44:51;;;;;;;0.37;0.33;;;15.80;99.90;;;;;;5035839;28;20268;-79
2022/06/10 05:47:23;;;;;;;0.23;0.23;;;15.90;99.90;;;;;;5033276;28;20284;-79
2022/06/10 05:49:52;;;;;;;0.70;0.30;;;16.00;99.90;;;;;;5033689;28;20195;-79
2022/06/10 05:52:20;;;;;;;0.20;0.20;;;16.00;99.90;;;;;;5032313;28;20262;-79
2022/06/10 05:54:49;;;;;;;0.40;0.40;;;16.00;99.90;;;;;;5034245;28;20211;-80
2022/06/10 05:57:15;;;;;;;0.70;0.47;;;16.20;99.90;;;;;;5034378;28;20221;-80
2022/06/10 05:59:41;;;;;;;0.90;0.33;;;16.30;99.90;;;;;;5032889;28;20252;-79
2022/06/10 06:02:10;;;;;;;0.33;0.23;;;16.30;99.90;;;;;;5034528;28;20658;-79
2022/06/10 06:04:36;;;;;;;0.30;0.30;;;16.40;99.90;;;;;;5033005;28;20515;-79
2022/06/10 06:07:02;;;;;;;0.50;0.50;;;16.50;99.90;;;;;;5030921;28;20217;-79
2022/06/10 06:09:28;;;;;;;0.53;0.50;;;16.50;99.90;;;;;;5033002;28;20181;-79
2022/06/10 06:11:57;;;;;;;0.40;0.40;;;16.50;99.90;;;;;;5032677;28;20243;-80
2022/06/10 06:14:25;;;;;;;0.40;0.30;;;16.50;99.90;;;;;;5032883;28;20254;-79
2022/06/10 06:16:54;;;;;;;0.20;0.20;;;16.60;99.90;;;;;;5032056;28;20240;-80
2022/06/10 06:19:21;;;;;;;0.30;0.20;;;16.70;99.90;;;;;;5034859;28;20217;-79
2022/06/10 06:21:46;;;;;;;0.23;0.23;;;16.90;99.90;;;;;;5035660;28;20182;-79
2022/06/10 06:24:12;;;;;;;0.30;0.30;;;16.90;99.90;;;;;;5034193;28;20195;-79
2022/06/10 06:26:37;;;;;;;0.30;0.30;;;17.00;99.90;;;;;;5031609;28;20823;-79
2022/06/10 06:29:03;;;;;;;0.30;0.30;;;17.10;99.90;;;;;;5035786;28;20194;-79
2022/06/10 06:31:29;;;;;;;4.13;0.47;;;17.30;99.90;;;;;;5034002;28;20194;-79
2022/06/10 06:33:54;;;;;;;0.30;0.30;;;17.30;99.90;;;;;;5033145;28;20263;-79
2022/06/10 06:36:23;;;;;;;0.63;0.60;;;17.50;99.90;;;;;;5033233;28;20202;-79
2022/06/10 06:38:49;;;;;;;0.30;0.30;;;17.60;99.90;;;;;;5033055;28;20190;-79
2022/06/10 06:41:16;;;;;;;0.50;0.50;;;17.70;99.90;;;;;;5033850;28;20273;-80
2022/06/10 06:43:42;;;;;;;1.23;0.50;;;17.70;99.90;;;;;;5034880;28;20186;-80
2022/06/10 06:46:12;;;;;;;0.20;0.20;;;17.70;99.90;;;;;;5033273;28;20230;-79
2022/06/10 06:48:38;;;;;;;0.30;0.30;;;17.80;99.90;;;;;;5038900;28;20182;-79
2022/06/10 06:51:03;;;;;;;0.40;0.40;;;17.90;99.90;;;;;;5036355;28;20250;-79
2022/06/10 06:53:29;;;;;;;0.40;0.40;;;18.00;99.90;;;;;;5037895;28;20489;-79
2022/06/10 06:55:56;;;;;;;0.83;0.33;;;18.00;99.90;;;;;;5036101;28;20209;-79
2022/06/10 06:58:22;;;;;;;0.27;0.27;;;18.00;99.90;;;;;;5038280;28;20178;-79
2022/06/10 07:00:47;;;;;;;0.30;0.30;;;18.10;99.90;;;;;;5037432;28;20209;-79
2022/06/10 07:03:13;;;;;;;0.20;0.20;;;18.20;99.90;;;;;;5037820;28;20278;-79
2022/06/10 07:05:39;;;;;;;0.63;0.40;;;18.30;99.90;;;;;;5035744;28;21732;-79
2022/06/10 07:08:05;;;;;;;0.20;0.20;;;18.40;99.90;;;;;;5037530;28;20670;-79
2022/06/10 07:10:30;;;;;;;0.23;0.23;;;18.50;99.90;;;;;;5036583;28;20840;-80
2022/06/10 07:12:56;;;;;;;0.20;0.20;;;18.60;99.90;;;;;;5037254;28;20206;-79
2022/06/10 07:15:22;;;;;;;0.30;0.30;;;18.80;99.90;;;;;;5035593;28;20297;-79
2022/06/10 07:17:48;;;;;;;0.27;0.27;;;18.90;99.90;;;;;;5037813;28;20182;-80
2022/06/10 07:20:28;;;;;;;0.33;0.33;;;18.90;99.90;;;;;;5033548;28;20241;-80
2022/06/10 07:22:53;;;;;;;0.47;0.47;;;19.10;99.90;;;;;;5037036;28;20210;-79
2022/06/10 07:25:20;;;;;;;0.20;0.20;;;19.20;99.90;;;;;;5038523;28;20213;-79
2022/06/10 07:27:45;;;;;;;0.30;0.30;;;19.30;99.90;;;;;;5039341;28;20193;-79
2022/06/10 07:30:15;;;;;;;0.40;0.40;;;19.40;99.90;;;;;;5041939;28;20184;-80
2022/06/10 07:32:42;;;;;;;0.30;0.30;;;19.50;99.90;;;;;;5038319;28;20203;-80
2022/06/10 07:35:08;;;;;;;0.27;0.27;;;19.70;99.90;;;;;;5036255;28;20675;-79
2022/06/10 07:37:34;;;;;;;0.20;0.20;;;19.80;99.90;;;;;;5037094;28;20209;-80
2022/06/10 07:39:59;;;;;;;0.30;0.30;;;20.00;99.90;;;;;;5035720;28;20178;-79
2022/06/10 07:42:25;;;;;;;0.20;0.20;;;20.20;99.90;;;;;;5039234;28;20205;-79
2022/06/10 07:44:50;;;;;;;0.50;0.50;;;20.30;99.90;;;;;;5036944;28;20191;-80
2022/06/10 07:47:16;;;;;;;0.40;0.40;;;20.00;99.90;;;;;;5039310;28;20202;-79
2022/06/10 07:49:42;;;;;;;0.30;0.30;;;20.20;99.90;;;;;;5037949;28;20193;-80
2022/06/10 07:52:09;;;;;;;0.10;0.10;;;20.40;99.90;;;;;;5035865;28;20185;-80
2022/06/10 07:54:36;;;;;;;0.30;0.30;;;20.60;99.90;;;;;;5036741;28;20224;-80
2022/06/10 07:57:03;;;;;;;0.53;0.53;;;20.60;99.90;;;;;;5037064;28;20566;-80
2022/06/10 07:59:29;;;;;;;0.40;0.40;;;20.70;99.90;;;;;;5035432;28;20293;-80
2022/06/10 08:01:55;;;;;;;5.67;0.70;;;20.80;99.90;;;;;;5036506;28;20194;-80
2022/06/10 08:04:21;;;;;;;1.73;0.37;;;20.80;99.90;;;;;;5036608;28;20201;-79
2022/06/10 08:06:47;;;;;;;0.40;0.40;;;20.70;99.90;;;;;;5035930;28;20222;-79
2022/06/10 08:09:15;;;;;;;0.60;0.60;;;20.80;99.90;;;;;;5036213;28;20186;-80
2022/06/10 08:11:41;;;;;;;0.60;0.60;;;21.00;99.90;;;;;;5038109;28;20188;-79
2022/06/10 08:14:07;;;;;;;0.40;0.40;;;21.00;99.90;;;;;;5035032;28;21184;-80
2022/06/10 08:16:34;;;;;;;0.73;0.30;;;21.10;99.90;;;;;;5038170;28;20221;-80
2022/06/10 08:19:00;;;;;;;0.30;0.30;;;21.30;99.90;;;;;;5037218;28;20190;-80
2022/06/10 08:24:10;;;;;;;0.53;0.40;;;21.70;99.90;;;;;;5037856;28;20698;-80
2022/06/10 08:26:36;;;;;;;0.20;0.20;;;21.90;99.90;;;;;;5036305;28;20199;-80
2022/06/10 08:29:03;;;;;;;0.30;0.30;;;22.00;99.90;;;;;;5035640;28;20193;-80
2022/06/10 08:31:29;;;;;;;0.60;0.60;;;22.20;99.90;;;;;;5035778;28;20925;-80
2022/06/10 08:33:54;;;;;;;0.27;0.27;;;22.20;99.90;;;;;;5036245;28;20214;-80
2022/06/10 08:36:20;;;;;;;0.30;0.30;;;22.40;99.90;;;;;;5035741;28;20274;-80
2022/06/10 08:38:45;;;;;;;0.47;0.47;;;22.60;99.90;;;;;;5036338;28;20726;-80
2022/06/10 08:41:42;;;;;;;0.20;0.20;;;22.70;99.90;;;;;;5035401;28;20182;-80
2022/06/10 08:44:29;;;;;;;0.20;0.20;;;22.70;99.90;;;;;;5034990;28;20173;-80
2022/06/10 08:47:13;;;;;;;5.10;0.40;;;22.80;99.90;;;;;;5034911;28;20202;-80
2022/06/10 08:49:38;;;;;;;0.40;0.37;;;22.90;99.90;;;;;;5035380;28;20193;-80
2022/06/10 08:52:30;;;;;;;1.37;0.40;;;22.90;99.90;;;;;;5036204;28;20599;-80
2022/06/10 08:55:16;;;;;;;0.20;0.20;;;22.80;99.90;;;;;;5036444;28;20572;-80
2022/06/10 08:57:45;;;;;;;0.73;0.40;;;22.90;99.90;;;;;;5035772;28;20599;-80
2022/06/10 09:00:27;;;;;;;0.53;0.37;;;22.90;99.90;;;;;;5034457;28;20179;-80
2022/06/10 09:03:11;;;;;;;4.00;0.70;;;23.10;99.90;;;;;;5035539;28;20189;-80
2022/06/10 09:05:46;;;;;;;0.27;0.27;;;23.00;99.90;;;;;;5031465;28;20206;-80
2022/06/10 09:08:23;;;;;;;0.30;0.30;;;23.40;99.90;;;;;;5034721;28;20603;-80
2022/06/10 09:10:56;;;;;;;0.40;0.40;;;23.60;99.90;;;;;;5034475;28;20190;-80
2022/06/10 09:13:38;;;;;;;0.33;0.33;;;23.70;99.90;;;;;;5032990;28;20210;-80
2022/06/10 09:16:36;;;;;;;0.30;0.30;;;23.60;99.90;;;;;;5034462;28;20230;-80
2022/06/10 09:19:33;;;;;;;0.40;0.40;;;23.80;99.90;;;;;;5035481;28;20269;-80
2022/06/10 09:22:10;;;;;;;0.30;0.30;;;23.90;99.90;;;;;;5033946;28;20196;-80
2022/06/10 09:24:39;;;;;;;0.40;0.40;;;23.80;99.90;;;;;;5034409;28;20185;-80
2022/06/10 09:27:26;;;;;;;0.27;0.27;;;23.80;99.90;;;;;;5029781;28;20213;-79
2022/06/10 09:29:51;;;;;;;0.67;0.67;;;23.80;99.90;;;;;;5030811;28;20192;-80
2022/06/10 09:32:43;;;;;;;0.43;0.43;;;23.70;99.90;;;;;;5031308;28;20203;-80
2022/06/10 09:35:28;;;;;;;0.40;0.40;;;23.70;99.90;;;;;;5030651;28;20301;-80
2022/06/10 09:38:13;;;;;;;0.30;0.30;;;23.80;99.90;;;;;;5029475;28;20174;-80
2022/06/10 09:40:57;;;;;;;0.30;0.30;;;23.80;99.90;;;;;;5029607;28;20186;-80
2022/06/10 09:44:04;;;;;;;0.67;0.60;;;23.70;99.90;;;;;;5030854;28;20196;-80
2022/06/10 09:46:49;;;;;;;0.40;0.30;;;24.00;99.90;;;;;;5008861;28;20213;-80
2022/06/10 09:49:23;;;;;;;0.30;0.30;;;24.00;99.90;;;;;;5032519;28;20277;-80
2022/06/10 09:52:17;;;;;;;0.60;0.40;;;23.50;99.90;;;;;;5033448;28;20252;-80
2022/06/10 09:55:01;;;;;;;0.20;0.20;;;23.90;99.90;;;;;;5031400;28;20517;-80
2022/06/10 09:57:35;;;;;;;0.33;0.33;;;23.30;99.90;;;;;;5033483;28;20259;-80
2022/06/10 10:00:27;;;;;;;0.30;0.30;;;23.70;99.90;;;;;;5033976;28;20593;-80
2022/06/10 10:03:16;;;;;;;0.47;0.40;;;24.10;99.90;;;;;;5023309;28;20235;-80
2022/06/10 10:05:44;;;;;;;0.30;0.30;;;24.60;99.90;;;;;;5022407;28;20291;-81
2022/06/10 10:09:00;;;;;;;0.47;0.47;;;24.50;99.90;;;;;;5032264;28;20210;-80
2022/06/10 10:12:01;;;;;;;0.53;0.53;;;24.50;99.90;;;;;;5020966;28;20194;-82
2022/06/10 10:14:32;;;;;;;1.87;0.23;;;24.60;99.90;;;;;;5021866;28;20222;-80
2022/06/10 10:17:33;;;;;;;0.60;0.60;;;24.90;99.90;;;;;;5031602;28;20236;-81
2022/06/10 10:20:13;;;;;;;0.40;0.40;;;25.20;99.90;;;;;;5030591;28;20196;-80
2022/06/10 10:23:03;;;;;;;0.30;0.30;;;25.50;99.90;;;;;;5029756;28;20212;-82
2022/06/10 10:25:29;;;;;;;0.13;0.13;;;25.50;99.90;;;;;;5030364;28;20694;-82
2022/06/10 10:27:55;;;;;;;1.03;0.80;;;25.40;99.90;;;;;;5031190;28;20245;-83
2022/06/10 10:30:32;;;;;;;0.40;0.40;;;25.00;99.90;;;;;;5029632;28;20302;-79
2022/06/10 10:33:11;;;;;;;0.30;0.30;;;24.80;99.90;;;;;;5027884;28;21131;-79
2022/06/10 10:35:48;;;;;;;0.30;0.30;;;24.60;99.90;;;;;;5028834;28;20182;-79
2022/06/10 10:38:40;;;;;;;0.20;0.20;;;24.60;99.90;;;;;;5029333;28;21147;-79
2022/06/10 10:41:34;;;;;;;0.40;0.40;;;24.80;99.90;;;;;;5030087;28;20261;-79
2022/06/10 10:44:20;;;;;;;0.20;0.20;;;25.30;99.90;;;;;;5024554;28;20282;-79
2022/06/10 10:47:11;;;;;;;0.30;0.30;;;25.30;99.90;;;;;;5031333;28;20237;-79
2022/06/10 10:49:40;;;;;;;0.83;0.83;;;25.20;99.90;;;;;;5029034;28;20657;-79
2022/06/10 10:52:20;;;;;;;0.30;0.30;;;25.50;99.90;;;;;;5028332;28;20185;-80
2022/06/10 10:54:48;;;;;;;0.33;0.30;;;25.70;99.90;;;;;;5029762;28;20251;-80
2022/06/10 10:57:35;;;;;;;0.20;0.20;;;25.80;99.90;;;;;;5028272;28;20206;-80
2022/06/10 11:00:10;;;;;;;0.30;0.30;;;26.10;99.90;;;;;;5033024;28;20170;-80
2022/06/10 11:02:39;;;;;;;0.40;0.40;;;26.30;99.90;;;;;;5029147;28;20236;-79
2022/06/10 11:05:37;;;;;;;0.20;0.20;;;26.30;99.90;;;;;;5030134;28;20198;-80
2022/06/10 11:08:17;;;;;;;0.30;0.30;;;26.50;99.90;;;;;;5030461;28;20181;-79
2022/06/10 11:11:06;;;;;;;0.20;0.20;;;26.50;99.90;;;;;;5024702;28;20243;-79
2022/06/10 11:13:56;;;;;;;0.80;0.60;;;26.50;99.90;;;;;;5028590;28;20201;-80
2022/06/10 11:16:27;;;;;;;1.70;1.60;;;26.40;99.90;;;;;;5029511;28;20206;-80
2022/06/10 11:19:04;;;;;;;0.30;0.30;;;26.30;99.90;;;;;;5029420;28;20178;-82
2022/06/10 11:21:30;;;;;;;0.30;0.27;;;26.20;99.90;;;;;;5024878;28;20248;-83
2022/06/10 11:23:58;;;;;;;1.70;0.40;;;25.70;99.90;;;;;;5031345;28;20186;-83
2022/06/10 11:26:25;;;;;;;1.70;0.40;;;25.80;99.90;;;;;;5030584;28;20205;-83
2022/06/10 11:29:00;;;;;;;0.23;0.23;;;25.70;99.90;;;;;;5030031;28;20860;-83
2022/06/10 11:31:40;;;;;;;0.50;0.50;;;25.80;99.90;;;;;;5033122;28;20189;-83
2022/06/10 11:34:16;;;;;;;0.30;0.30;;;25.90;99.90;;;;;;5032177;28;20297;-79
2022/06/10 11:36:51;;;;;;;0.30;0.30;;;25.90;99.90;;;;;;5031955;28;20279;-79
2022/06/10 11:39:19;;;;;;;0.37;0.33;;;26.00;99.90;;;;;;5032692;28;20181;-79
2022/06/10 11:41:58;;;;;;;0.33;0.33;;;25.70;99.90;;;;;;5031481;28;20729;-79
2022/06/10 11:44:27;;;;;;;0.60;0.60;;;25.50;99.90;;;;;;5032014;28;20189;-79
2022/06/10 11:47:04;;;;;;;0.30;0.30;;;25.80;99.90;;;;;;5033339;28;20218;-79
2022/06/10 11:50:00;;;;;;;0.20;0.20;;;25.60;99.90;;;;;;5033890;28;20198;-79
2022/06/10 11:52:39;;;;;;;0.20;0.20;;;25.70;99.90;;;;;;5033347;28;20304;-80
2022/06/10 11:55:11;;;;;;;0.30;0.30;;;26.10;99.90;;;;;;5030458;28;20316;-80
2022/06/10 12:00:52;;;;;;;0.20;0.20;;;26.50;99.90;;;;;;5033990;28;20180;-79
2022/06/10 12:03:33;;;;;;;0.83;0.30;;;26.60;99.90;;;;;;5035845;28;20187;-80
2022/06/10 12:06:18;;;;;;;0.23;0.23;;;26.90;99.90;;;;;;5032605;28;20230;-79
2022/06/10 12:08:43;;;;;;;0.87;0.50;;;27.00;99.90;;;;;;5028985;28;20282;-78
2022/06/10 12:11:28;;;;;;;0.40;0.40;;;27.00;99.90;;;;;;5032629;28;20671;-79
2022/06/10 12:14:08;;;;;;;0.30;0.30;;;27.20;99.90;;;;;;5033501;28;20258;-79
2022/06/10 12:16:36;;;;;;;0.30;0.30;;;27.50;99.90;;;;;;5036029;28;20204;-79
2022/06/10 12:19:06;;;;;;;0.40;0.40;;;27.50;99.90;;;;;;5031011;28;20210;-79
2022/06/10 12:21:32;;;;;;;0.30;0.30;;;27.50;99.90;;;;;;5035380;28;20178;-79
2022/06/10 12:23:57;;;;;;;0.27;0.27;;;27.20;99.90;;;;;;5029852;28;20189;-79
2022/06/10 12:26:45;;;;;;;0.23;0.23;;;26.40;99.90;;;;;;5027658;28;20206;-80
2022/06/10 12:29:31;;;;;;;1.00;0.40;;;26.30;99.90;;;;;;5030799;28;20174;-79
2022/06/10 12:32:26;;;;;;;0.30;0.30;;;26.50;99.90;;;;;;5031476;28;20551;-79
2022/06/10 12:35:25;;;;;;;1.60;0.40;;;26.90;99.90;;;;;;5024666;28;20663;-80
2022/06/10 12:38:17;;;;;;;0.47;0.43;;;26.80;99.90;;;;;;5030584;28;20647;-79
2022/06/10 12:41:01;;;;;;;0.50;0.30;;;26.30;99.90;;;;;;5030248;28;20563;-81
2022/06/10 12:43:36;;;;;;;0.30;0.30;;;26.90;99.90;;;;;;5035284;28;20177;-80
2022/06/10 12:46:06;;;;;;;0.37;0.37;;;27.40;99.90;;;;;;5032715;28;20228;-81
2022/06/10 12:48:40;;;;;;;0.50;0.40;;;27.40;99.90;;;;;;5027425;28;20675;-80
2022/06/10 12:51:26;;;;;;;0.70;0.47;;;27.50;99.90;;;;;;5030555;28;20317;-80
2022/06/10 12:54:22;;;;;;;0.97;0.50;;;27.60;99.90;;;;;;5030848;28;20214;-82
2022/06/10 12:56:48;;;;;;;0.27;0.27;;;27.60;99.90;;;;;;5032797;28;20680;-83
2022/06/10 12:59:24;;;;;;;0.50;0.30;;;27.70;99.90;;;;;;5030070;28;20259;-81
2022/06/10 13:01:52;;;;;;;0.40;0.40;;;27.70;99.90;;;;;;5032666;28;20221;-81
2022/06/10 13:04:20;;;;;;;0.30;0.30;;;27.90;99.90;;;;;;5032279;28;20278;-81
2022/06/10 13:07:04;;;;;;;0.30;0.23;;;27.70;99.90;;;;;;5034503;28;20229;-81
2022/06/10 13:09:39;;;;;;;2.67;0.40;;;27.30;99.90;;;;;;5029559;28;20206;-81
2022/06/10 13:12:08;;;;;;;0.37;0.37;;;27.10;99.90;;;;;;5029672;28;20190;-81
2022/06/10 13:14:33;;;;;;;0.60;0.60;;;26.80;99.90;;;;;;5031682;28;20218;-81
2022/06/10 13:16:59;;;;;;;0.30;0.30;;;26.60;99.90;;;;;;5027884;28;20239;-81
2022/06/10 13:19:36;;;;;;;0.30;0.30;;;26.40;99.90;;;;;;5030608;28;20780;-81
2022/06/10 13:22:17;;;;;;;0.37;0.37;;;26.50;99.90;;;;;;5029652;28;20228;-81
2022/06/10 13:24:52;;;;;;;0.40;0.40;;;26.50;99.90;;;;;;5030193;28;20721;-81
2022/06/10 13:27:24;;;;;;;0.83;0.40;;;26.40;99.90;;;;;;5029879;28;20233;-81
2022/06/10 13:29:52;;;;;;;0.27;0.27;;;26.30;99.90;;;;;;5028760;28;20591;-81
2022/06/10 13:32:18;;;;;;;4.53;1.00;;;26.30;99.90;;;;;;5032074;28;20247;-81
2022/06/10 13:34:53;;;;;;;0.30;0.30;;;26.20;99.90;;;;;;5028606;28;20210;-82